createdAt,value
2022-10-31T00:01:34.370Z,98492.69
2022-10-31T00:04:02.931Z,98497.91
2022-10-31T00:06:31.517Z,98502.16
2022-10-31T00:09:03.062Z,98509.03
2022-10-31T00:11:31.674Z,98502.19
2022-10-31T00:14:00.555Z,98503.00
2022-10-31T00:16:30.130Z,98503.03
2022-10-31T00:19:00.996Z,98507.41
2022-10-31T00:21:31.593Z,98506.66
2022-10-31T00:24:02.033Z,98508.34
2022-10-31T00:26:31.062Z,98503.41
2022-10-31T00:28:59.892Z,98517.91
2022-10-31T00:31:28.323Z,98511.88
2022-10-31T00:33:56.854Z,98505.03
2022-10-31T00:36:25.736Z,98505.03
2022-10-31T00:38:54.237Z,98505.16
2022-10-31T00:41:23.990Z,98508.56
2022-10-31T00:43:52.538Z,98511.22
2022-10-31T00:46:21.014Z,98516.44
2022-10-31T00:48:49.426Z,98508.03
2022-10-31T00:51:17.862Z,98508.03
2022-10-31T00:53:46.434Z,98509.00
2022-10-31T00:56:14.639Z,98510.84
2022-10-31T00:58:44.572Z,98503.22
2022-10-31T01:01:13.166Z,98502.44
2022-10-31T01:03:42.119Z,98507.56
2022-10-31T01:06:12.650Z,98501.63
2022-10-31T01:08:41.529Z,98496.59
2022-10-31T01:11:13.368Z,98500.09
2022-10-31T01:13:43.531Z,98501.91
2022-10-31T01:16:14.251Z,98503.66
2022-10-31T01:18:42.858Z,98495.00
2022-10-31T01:21:13.287Z,98495.63
2022-10-31T01:23:41.902Z,98495.66
2022-10-31T01:26:15.971Z,98495.75
2022-10-31T01:28:48.359Z,98495.19
2022-10-31T01:31:17.683Z,98488.41
2022-10-31T01:33:46.816Z,98492.78
2022-10-31T01:36:18.583Z,98483.50
2022-10-31T01:38:47.478Z,98490.28
2022-10-31T01:41:17.877Z,98488.63
2022-10-31T01:43:53.968Z,98501.47
2022-10-31T01:46:26.823Z,98497.25
2022-10-31T01:48:56.924Z,98494.75
2022-10-31T01:51:31.055Z,98473.41
2022-10-31T01:54:03.542Z,98489.31
2022-10-31T01:56:32.440Z,98490.22
2022-10-31T01:59:04.327Z,98485.22
2022-10-31T02:01:33.037Z,98489.44
2022-10-31T02:04:01.441Z,98502.31
2022-10-31T02:06:37.499Z,98498.03
2022-10-31T02:09:07.955Z,98489.44
2022-10-31T02:11:38.287Z,98498.78
2022-10-31T02:14:07.904Z,98490.22
2022-10-31T02:16:36.666Z,98491.03
2022-10-31T02:19:08.105Z,98483.38
2022-10-31T02:21:45.130Z,98497.13
2022-10-31T02:24:54.925Z,98494.59
2022-10-31T02:27:47.567Z,98472.38
2022-10-31T02:30:21.082Z,98491.97
2022-10-31T02:32:57.179Z,98490.22
2022-10-31T02:35:37.259Z,98475.88
2022-10-31T02:38:15.532Z,98484.47
2022-10-31T02:40:53.537Z,98484.59
2022-10-31T02:43:25.385Z,98488.06
2022-10-31T02:46:00.505Z,98491.53
2022-10-31T02:48:36.277Z,98482.19
2022-10-31T02:51:07.211Z,98488.00
2022-10-31T02:53:36.024Z,98486.38
2022-10-31T02:56:08.878Z,98486.38
2022-10-31T02:58:40.720Z,98476.97
2022-10-31T03:01:54.295Z,98476.25
2022-10-31T03:04:39.000Z,98486.59
2022-10-31T03:07:11.105Z,98483.16
2022-10-31T03:09:49.208Z,98479.03
2022-10-31T03:12:23.258Z,98482.53
2022-10-31T03:14:55.128Z,98479.19
2022-10-31T03:17:28.894Z,98477.59
2022-10-31T03:20:03.187Z,98474.16
2022-10-31T03:22:34.212Z,98471.59
2022-10-31T03:25:06.146Z,98481.97
2022-10-31T03:27:38.145Z,98477.69
2022-10-31T03:30:09.508Z,98485.28
2022-10-31T03:32:43.503Z,98484.50
2022-10-31T03:35:15.595Z,98477.78
2022-10-31T03:37:45.309Z,98478.69
2022-10-31T03:40:16.021Z,98482.94
2022-10-31T03:42:49.614Z,98482.19
2022-10-31T03:45:24.175Z,98486.44
2022-10-31T03:47:54.091Z,98487.31
2022-10-31T03:50:26.675Z,98483.09
2022-10-31T03:53:00.166Z,98478.84
2022-10-31T03:55:33.948Z,98487.38
2022-10-31T03:58:08.902Z,98492.41
2022-10-31T04:00:41.876Z,98487.28
2022-10-31T04:03:14.271Z,98478.66
2022-10-31T04:05:47.952Z,98481.19
2022-10-31T04:08:20.149Z,98487.22
2022-10-31T04:10:51.469Z,98487.31
2022-10-31T04:13:24.839Z,98495.88
2022-10-31T04:15:56.941Z,98494.25
2022-10-31T04:18:26.109Z,98492.50
2022-10-31T04:21:05.270Z,98493.34
2022-10-31T04:23:34.679Z,98494.16
2022-10-31T04:26:03.433Z,98494.16
2022-10-31T04:28:31.654Z,98490.72
2022-10-31T04:30:59.795Z,98481.41
2022-10-31T04:33:29.707Z,98489.88
2022-10-31T04:35:57.955Z,98488.16
2022-10-31T04:38:28.378Z,98499.22
2022-10-31T04:40:56.503Z,98484.75
2022-10-31T04:43:25.289Z,98491.50
2022-10-31T04:45:53.710Z,98493.88
2022-10-31T04:48:22.565Z,98482.84
2022-10-31T04:50:51.198Z,98477.72
2022-10-31T04:53:19.688Z,98484.47
2022-10-31T04:55:49.598Z,98494.13
2022-10-31T05:00:54.487Z,98484.81
2022-10-31T05:03:22.915Z,98490.88
2022-10-31T05:05:51.578Z,98483.31
2022-10-31T05:08:20.031Z,98487.63
2022-10-31T05:10:50.380Z,98481.72
2022-10-31T05:13:18.768Z,98479.22
2022-10-31T05:15:46.971Z,98480.09
2022-10-31T05:18:15.511Z,98474.97
2022-10-31T05:20:43.776Z,98480.06
2022-10-31T05:23:12.311Z,98475.88
2022-10-31T05:25:42.594Z,98472.41
2022-10-31T05:28:12.510Z,98471.59
2022-10-31T05:30:41.117Z,98467.41
2022-10-31T05:33:09.737Z,98472.63
2022-10-31T05:35:38.389Z,98479.50
2022-10-31T05:38:06.775Z,98477.81
2022-10-31T05:40:35.876Z,98476.09
2022-10-31T05:43:04.312Z,98483.78
2022-10-31T05:45:35.072Z,98479.53
2022-10-31T05:48:04.703Z,98478.66
2022-10-31T05:50:35.246Z,98485.47
2022-10-31T05:53:05.723Z,98488.06
2022-10-31T05:55:34.649Z,98488.91
2022-10-31T05:58:03.445Z,98488.88
2022-10-31T06:00:35.907Z,98478.63
2022-10-31T06:03:06.819Z,98476.88
2022-10-31T06:05:36.233Z,98485.44
2022-10-31T06:08:05.245Z,98482.03
2022-10-31T06:10:33.815Z,98471.88
2022-10-31T06:13:04.714Z,98472.69
2022-10-31T06:15:34.476Z,98481.16
2022-10-31T06:18:04.969Z,98482.81
2022-10-31T06:20:33.376Z,98474.31
2022-10-31T06:23:02.258Z,98481.03
2022-10-31T06:25:31.075Z,98483.56
2022-10-31T06:28:00.265Z,98477.50
2022-10-31T06:30:29.890Z,98480.00
2022-10-31T06:33:04.501Z,98462.13
2022-10-31T06:35:33.652Z,98466.47
2022-10-31T06:38:02.788Z,98475.00
2022-10-31T06:40:31.715Z,98478.44
2022-10-31T06:43:01.006Z,98475.81
2022-10-31T06:45:29.693Z,98470.75
2022-10-31T06:48:17.621Z,98479.19
2022-10-31T06:50:46.527Z,98496.19
2022-10-31T06:53:15.760Z,98491.88
2022-10-31T06:55:45.167Z,98497.78
2022-10-31T06:58:14.133Z,98495.19
2022-10-31T07:00:42.868Z,98490.00
2022-10-31T07:03:14.984Z,98496.78
2022-10-31T07:05:44.204Z,98495.84
2022-10-31T07:08:14.569Z,98484.63
2022-10-31T07:10:44.848Z,98494.00
2022-10-31T07:13:15.022Z,98491.31
2022-10-31T07:15:45.087Z,98498.94
2022-10-31T07:18:16.552Z,98493.75
2022-10-31T07:20:45.154Z,98497.00
2022-10-31T07:23:14.672Z,98499.53
2022-10-31T07:25:43.629Z,98512.22
2022-10-31T07:28:12.016Z,98511.25
2022-10-31T07:30:40.916Z,98502.59
2022-10-31T07:33:09.707Z,98501.63
2022-10-31T07:35:40.152Z,98494.69
2022-10-31T07:38:13.011Z,98493.78
2022-10-31T07:40:42.221Z,98500.41
2022-10-31T07:43:14.429Z,98489.13
2022-10-31T07:45:43.246Z,98494.22
2022-10-31T07:48:11.879Z,98487.25
2022-10-31T07:50:42.021Z,98490.53
2022-10-31T07:53:12.129Z,98501.41
2022-10-31T07:55:41.986Z,98505.69
2022-10-31T07:58:12.795Z,98499.47
2022-10-31T08:00:44.507Z,98490.72
2022-10-31T08:03:14.360Z,98493.16
2022-10-31T08:05:47.356Z,98489.59
2022-10-31T08:08:17.630Z,98490.28
2022-10-31T08:10:45.969Z,98494.44
2022-10-31T08:13:15.984Z,98487.44
2022-10-31T08:15:45.591Z,98493.31
2022-10-31T08:18:15.418Z,98482.91
2022-10-31T08:20:46.686Z,98488.75
2022-10-31T08:23:17.395Z,98484.19
2022-10-31T08:25:48.258Z,98484.88
2022-10-31T08:28:17.352Z,98467.72
2022-10-31T08:30:47.355Z,98477.66
2022-10-31T08:33:19.108Z,98476.63
2022-10-31T08:35:49.859Z,98474.63
2022-10-31T08:38:18.730Z,98465.06
2022-10-31T08:40:51.124Z,98470.81
2022-10-31T08:43:20.404Z,98475.84
2022-10-31T08:45:52.326Z,98470.50
2022-10-31T08:48:20.665Z,98465.97
2022-10-31T08:50:51.623Z,98454.59
2022-10-31T08:53:21.457Z,98467.97
2022-10-31T08:55:49.952Z,98458.25
2022-10-31T08:58:21.815Z,98456.22
2022-10-31T09:00:52.619Z,98454.91
2022-10-31T09:03:23.064Z,98458.91
2022-10-31T09:05:56.500Z,98456.03
2022-10-31T09:08:25.071Z,98450.56
2022-10-31T09:10:54.329Z,98451.75
2022-10-31T09:13:27.328Z,98449.56
2022-10-31T09:15:58.763Z,98445.88
2022-10-31T09:18:29.042Z,98451.63
2022-10-31T09:21:01.168Z,98454.94
2022-10-31T09:23:30.577Z,98452.03
2022-10-31T09:26:02.029Z,98445.72
2022-10-31T09:28:30.968Z,98438.50
2022-10-31T09:30:59.510Z,98452.56
2022-10-31T09:33:28.254Z,98453.94
2022-10-31T09:35:56.676Z,98448.59
2022-10-31T09:38:26.634Z,98448.25
2022-10-31T09:41:03.780Z,98448.69
2022-10-31T09:43:39.038Z,98444.88
2022-10-31T09:46:12.721Z,98437.56
2022-10-31T09:48:51.973Z,98441.66
2022-10-31T09:51:25.672Z,98440.63
2022-10-31T09:54:02.887Z,98436.69
2022-10-31T09:56:36.238Z,98440.09
2022-10-31T09:59:07.198Z,98449.22
2022-10-31T10:01:43.433Z,98425.44
2022-10-31T10:04:35.836Z,98424.31
2022-10-31T10:07:10.751Z,98423.72
2022-10-31T10:09:40.576Z,98418.72
2022-10-31T10:12:19.551Z,98413.13
2022-10-31T10:15:03.511Z,98404.75
2022-10-31T10:17:40.884Z,98409.44
2022-10-31T10:20:24.632Z,98408.53
2022-10-31T10:23:03.953Z,98400.69
2022-10-31T10:25:40.681Z,98401.75
2022-10-31T10:28:20.675Z,98396.00
2022-10-31T10:30:53.094Z,98394.66
2022-10-31T10:33:30.950Z,98389.06
2022-10-31T10:36:02.141Z,98393.78
2022-10-31T10:38:37.247Z,98380.97
2022-10-31T10:41:12.721Z,98393.22
2022-10-31T10:43:42.250Z,98371.41
2022-10-31T10:46:41.388Z,98374.19
2022-10-31T10:49:20.285Z,98369.34
2022-10-31T10:52:07.319Z,98358.59
2022-10-31T10:54:49.917Z,98358.53
2022-10-31T10:57:30.495Z,98361.84
2022-10-31T11:00:01.943Z,98359.47
2022-10-31T11:02:34.335Z,98360.41
2022-10-31T11:05:05.766Z,98357.38
2022-10-31T11:07:42.015Z,98355.19
2022-10-31T11:10:16.562Z,98347.47
2022-10-31T11:12:48.815Z,98335.00
2022-10-31T11:15:25.085Z,98342.88
2022-10-31T11:17:57.254Z,98338.31
2022-10-31T11:20:32.613Z,98331.69
2022-10-31T11:23:18.370Z,98332.19
2022-10-31T11:25:56.516Z,98331.19
2022-10-31T11:28:27.121Z,98324.00
2022-10-31T11:30:58.454Z,98314.31
2022-10-31T11:33:32.611Z,98301.66
2022-10-31T11:36:02.795Z,98310.06
2022-10-31T11:38:37.430Z,98304.09
2022-10-31T11:41:17.490Z,98298.56
2022-10-31T11:43:53.325Z,98300.84
2022-10-31T11:46:25.307Z,98293.53
2022-10-31T11:48:56.064Z,98297.22
2022-10-31T11:51:26.476Z,98282.41
2022-10-31T11:54:00.135Z,98278.66
2022-10-31T11:56:41.041Z,98280.31
2022-10-31T11:59:20.883Z,98279.97
2022-10-31T12:01:51.842Z,98269.16
2022-10-31T12:04:20.864Z,98271.22
2022-10-31T12:06:51.990Z,98273.97
2022-10-31T12:09:23.641Z,98259.75
2022-10-31T12:12:06.553Z,98257.53
2022-10-31T12:15:04.221Z,98258.81
2022-10-31T12:17:40.891Z,98257.03
2022-10-31T12:20:23.996Z,98249.88
2022-10-31T12:23:01.556Z,98251.00
2022-10-31T12:25:42.573Z,98247.53
2022-10-31T12:28:27.395Z,98239.63
2022-10-31T12:31:11.927Z,98244.31
2022-10-31T12:33:53.099Z,98238.72
2022-10-31T12:36:37.506Z,98238.06
2022-10-31T12:39:26.947Z,98232.00
2022-10-31T12:42:03.605Z,98226.78
2022-10-31T12:45:09.341Z,98230.53
2022-10-31T12:48:01.810Z,98222.22
2022-10-31T12:50:39.366Z,98218.41
2022-10-31T12:53:26.765Z,98213.75
2022-10-31T12:56:07.978Z,98212.56
2022-10-31T12:58:42.400Z,98207.63
2022-10-31T13:01:17.180Z,98203.91
2022-10-31T13:03:55.260Z,98203.09
2022-10-31T13:06:30.059Z,98203.28
2022-10-31T13:09:04.197Z,98209.38
2022-10-31T13:11:37.901Z,98198.28
2022-10-31T13:14:14.449Z,98193.91
2022-10-31T13:16:46.340Z,98189.34
2022-10-31T13:19:20.574Z,98182.81
2022-10-31T13:22:00.575Z,98185.00
2022-10-31T13:24:35.813Z,98168.06
2022-10-31T13:27:12.113Z,98183.66
2022-10-31T13:29:46.503Z,98170.13
2022-10-31T13:32:14.888Z,98169.56
2022-10-31T13:34:49.412Z,98172.50
2022-10-31T13:37:24.240Z,98162.47
2022-10-31T13:40:14.408Z,98159.75
2022-10-31T13:43:00.428Z,98155.56
2022-10-31T13:45:29.634Z,98158.53
2022-10-31T13:48:01.785Z,98164.75
2022-10-31T13:50:33.730Z,98159.03
2022-10-31T13:53:17.519Z,98154.19
2022-10-31T13:55:47.870Z,98157.09
2022-10-31T13:58:27.347Z,98148.81
2022-10-31T14:01:18.726Z,98153.38
2022-10-31T14:04:07.827Z,98143.22
2022-10-31T14:06:49.659Z,98141.09
2022-10-31T14:09:25.152Z,98134.41
2022-10-31T14:11:55.062Z,98129.72
2022-10-31T14:14:26.244Z,98138.13
2022-10-31T14:16:59.950Z,98129.72
2022-10-31T14:19:29.215Z,98133.63
2022-10-31T14:21:59.264Z,98130.56
2022-10-31T14:24:39.597Z,98125.41
2022-10-31T14:27:37.364Z,98126.88
2022-10-31T14:30:24.676Z,98116.94
2022-10-31T14:32:59.844Z,98110.41
2022-10-31T14:35:38.228Z,98117.84
2022-10-31T14:38:45.906Z,98111.31
2022-10-31T14:41:38.116Z,98119.53
2022-10-31T14:44:37.459Z,98109.84
2022-10-31T14:47:18.721Z,98110.06
2022-10-31T14:50:05.711Z,98105.97
2022-10-31T14:52:35.316Z,98090.53
2022-10-31T14:55:10.541Z,98097.41
2022-10-31T14:57:40.872Z,98092.03
2022-10-31T15:00:17.665Z,98087.34
2022-10-31T15:02:54.229Z,98086.84
2022-10-31T15:05:24.280Z,98083.81
2022-10-31T15:07:54.718Z,98086.69
2022-10-31T15:10:27.689Z,98088.84
2022-10-31T15:12:56.404Z,98081.63
2022-10-31T15:15:27.328Z,98086.31
2022-10-31T15:17:58.911Z,98078.09
2022-10-31T15:20:30.042Z,98073.97
2022-10-31T15:23:00.357Z,98076.88
2022-10-31T15:25:32.907Z,98071.16
2022-10-31T15:28:01.858Z,98061.25
2022-10-31T15:30:31.958Z,98068.44
2022-10-31T15:33:00.347Z,98061.28
2022-10-31T15:35:31.296Z,98068.41
2022-10-31T15:38:02.857Z,98066.28
2022-10-31T15:40:33.582Z,98055.34
2022-10-31T15:43:04.687Z,98059.09
2022-10-31T15:45:34.322Z,98075.69
2022-10-31T15:48:06.999Z,98076.88
2022-10-31T15:50:38.651Z,98066.03
2022-10-31T15:53:09.413Z,98065.56
2022-10-31T15:55:48.339Z,98064.19
2022-10-31T15:58:19.281Z,98062.06
2022-10-31T16:00:58.843Z,98054.44
2022-10-31T16:03:29.230Z,98060.81
2022-10-31T16:05:59.988Z,98055.94
2022-10-31T16:08:35.435Z,98063.88
2022-10-31T16:11:20.513Z,98056.53
2022-10-31T16:13:57.576Z,98049.13
2022-10-31T16:16:35.322Z,98041.63
2022-10-31T16:19:06.938Z,98052.13
2022-10-31T16:21:39.013Z,98064.84
2022-10-31T16:24:19.157Z,98074.66
2022-10-31T16:26:52.938Z,98071.13
2022-10-31T16:29:29.947Z,98085.50
2022-10-31T16:31:59.128Z,98079.00
2022-10-31T16:34:28.451Z,98081.72
2022-10-31T16:36:57.201Z,98078.66
2022-10-31T16:39:25.799Z,98085.88
2022-10-31T16:41:59.084Z,98090.72
2022-10-31T16:44:29.448Z,98083.34
2022-10-31T16:47:16.771Z,98089.06
2022-10-31T16:49:46.472Z,98082.47
2022-10-31T16:52:15.374Z,98072.78
2022-10-31T16:54:43.866Z,98081.28
2022-10-31T16:57:18.081Z,98081.97
2022-10-31T16:59:49.749Z,98084.94
2022-10-31T17:02:20.069Z,98086.81
2022-10-31T17:04:50.896Z,98095.88
2022-10-31T17:07:22.255Z,98099.78
2022-10-31T17:09:50.507Z,98101.59
2022-10-31T17:12:23.500Z,98090.84
2022-10-31T17:14:53.963Z,98093.09
2022-10-31T17:17:23.769Z,98094.03
2022-10-31T17:19:52.224Z,98089.34
2022-10-31T17:22:20.579Z,98081.44
2022-10-31T17:24:48.898Z,98099.47
2022-10-31T17:27:17.719Z,98081.44
2022-10-31T17:29:47.453Z,98079.75
2022-10-31T17:32:16.491Z,98090.25
2022-10-31T17:34:44.882Z,98088.88
2022-10-31T17:37:14.052Z,98086.47
2022-10-31T17:39:44.097Z,98097.88
2022-10-31T17:42:13.342Z,98091.97
2022-10-31T17:44:42.300Z,98085.50
2022-10-31T17:47:12.791Z,98083.16
2022-10-31T17:49:41.232Z,98080.44
2022-10-31T17:52:10.414Z,98077.34
2022-10-31T17:54:39.032Z,98076.41
2022-10-31T17:57:07.591Z,98076.81
2022-10-31T17:59:36.469Z,98065.38
2022-10-31T18:02:09.265Z,98071.59
2022-10-31T18:04:40.619Z,98070.44
2022-10-31T18:07:11.026Z,98075.31
2022-10-31T18:09:39.742Z,98068.31
2022-10-31T18:12:08.133Z,98067.13
2022-10-31T18:14:36.675Z,98080.09
2022-10-31T18:17:05.934Z,98076.50
2022-10-31T18:19:34.410Z,98081.09
2022-10-31T18:22:04.945Z,98072.78
2022-10-31T18:24:33.475Z,98085.91
2022-10-31T18:27:02.006Z,98087.09
2022-10-31T18:29:30.493Z,98092.44
2022-10-31T18:31:59.080Z,98091.63
2022-10-31T18:34:27.636Z,98092.66
2022-10-31T18:36:57.075Z,98083.34
2022-10-31T18:39:27.488Z,98074.00
2022-10-31T18:41:57.301Z,98071.06
2022-10-31T18:44:26.941Z,98070.22
2022-10-31T18:46:56.070Z,98058.56
2022-10-31T18:49:24.996Z,98067.94
2022-10-31T18:51:54.681Z,98064.63
2022-10-31T18:54:23.156Z,98067.47
2022-10-31T18:56:53.273Z,98059.78
2022-10-31T18:59:21.869Z,98069.56
2022-10-31T19:01:51.715Z,98065.50
2022-10-31T19:04:20.691Z,98063.19
2022-10-31T19:06:50.135Z,98057.41
2022-10-31T19:09:19.679Z,98061.69
2022-10-31T19:11:48.900Z,98069.53
2022-10-31T19:14:19.218Z,98057.81
2022-10-31T19:16:51.928Z,98060.69
2022-10-31T19:19:21.207Z,98061.13
2022-10-31T19:21:49.891Z,98056.13
2022-10-31T19:24:18.881Z,98061.38
2022-10-31T19:26:48.003Z,98064.13
2022-10-31T19:29:16.905Z,98057.41
2022-10-31T19:31:48.773Z,98048.91
2022-10-31T19:34:18.314Z,98049.66
2022-10-31T19:36:47.085Z,98044.09
2022-10-31T19:39:16.841Z,98047.63
2022-10-31T19:41:46.808Z,98048.66
2022-10-31T19:44:16.236Z,98044.50
2022-10-31T19:46:52.733Z,98039.44
2022-10-31T19:49:24.862Z,98041.38
2022-10-31T19:51:54.227Z,98029.66
2022-10-31T19:54:23.261Z,98030.38
2022-10-31T19:56:52.118Z,98045.06
2022-10-31T19:59:20.814Z,98037.47
2022-10-31T20:01:49.441Z,98028.19
2022-10-31T20:04:17.998Z,98041.00
2022-10-31T20:06:48.725Z,98039.47
2022-10-31T20:09:17.333Z,98039.75
2022-10-31T20:11:47.957Z,98029.56
2022-10-31T20:14:17.995Z,98029.72
2022-10-31T20:16:47.336Z,98034.84
2022-10-31T20:19:16.255Z,98038.31
2022-10-31T20:21:44.943Z,98030.69
2022-10-31T20:24:15.503Z,98022.22
2022-10-31T20:26:44.130Z,98026.47
2022-10-31T20:29:16.325Z,98027.91
2022-10-31T20:31:46.355Z,98027.59
2022-10-31T20:34:15.587Z,98017.53
2022-10-31T20:36:44.589Z,98019.34
2022-10-31T20:39:15.701Z,98012.59
2022-10-31T20:41:44.134Z,98008.03
2022-10-31T20:44:13.039Z,98020.25
2022-10-31T20:46:41.406Z,98019.66
2022-10-31T20:49:10.394Z,98023.19
2022-10-31T20:51:39.085Z,98016.53
2022-10-31T20:54:08.095Z,98003.91
2022-10-31T20:56:37.787Z,98024.19
2022-10-31T20:59:07.620Z,98009.28
2022-10-31T21:01:38.081Z,98037.25
2022-10-31T21:04:12.153Z,98026.41
2022-10-31T21:06:44.005Z,98040.81
2022-10-31T21:09:14.983Z,98035.75
2022-10-31T21:11:46.868Z,98035.66
2022-10-31T21:14:15.324Z,98036.09
2022-10-31T21:16:43.771Z,98030.94
2022-10-31T21:19:13.207Z,98031.81
2022-10-31T21:21:41.955Z,98023.03
2022-10-31T21:24:13.871Z,98028.13
2022-10-31T21:26:48.467Z,98024.72
2022-10-31T21:29:17.660Z,98015.72
2022-10-31T21:31:46.694Z,98019.47
2022-10-31T21:34:16.197Z,98020.25
2022-10-31T21:36:44.790Z,98012.84
2022-10-31T21:39:13.765Z,98003.53
2022-10-31T21:41:42.162Z,98005.16
2022-10-31T21:44:12.161Z,97989.78
2022-10-31T21:46:42.485Z,98000.75
2022-10-31T21:49:12.738Z,97994.91
2022-10-31T21:51:43.072Z,97995.00
2022-10-31T21:54:30.378Z,97985.75
2022-10-31T21:57:00.398Z,97976.38
2022-10-31T21:59:30.897Z,97965.44
2022-10-31T22:02:01.160Z,97974.75
2022-10-31T22:04:30.209Z,97967.03
2022-10-31T22:06:59.326Z,97977.22
2022-10-31T22:09:28.062Z,97965.19
2022-10-31T22:11:57.972Z,97970.28
2022-10-31T22:14:26.629Z,97951.53
2022-10-31T22:16:56.787Z,97966.59
2022-10-31T22:19:26.189Z,97964.06
2022-10-31T22:21:55.199Z,97953.03
2022-10-31T22:24:24.803Z,97962.13
2022-10-31T22:26:53.804Z,97960.28
2022-10-31T22:29:23.212Z,97966.34
2022-10-31T22:31:58.717Z,97978.91
2022-10-31T22:34:33.271Z,97993.56
2022-10-31T22:37:02.337Z,98004.47
2022-10-31T22:39:31.467Z,97985.69
2022-10-31T22:42:02.686Z,97974.66
2022-10-31T22:44:31.151Z,97973.91
2022-10-31T22:47:00.269Z,97994.75
2022-10-31T22:49:28.733Z,98010.28
2022-10-31T22:52:03.285Z,97994.19
2022-10-31T22:54:32.930Z,98002.88
2022-10-31T22:57:01.721Z,98005.53
2022-10-31T22:59:30.323Z,97998.78
2022-10-31T23:01:59.222Z,98026.28
2022-10-31T23:04:28.081Z,98019.38
2022-10-31T23:06:58.116Z,98015.09
2022-10-31T23:09:27.948Z,98022.63
2022-10-31T23:12:16.501Z,98025.03
2022-10-31T23:14:44.745Z,98023.38
2022-10-31T23:17:18.041Z,98025.78
2022-10-31T23:19:47.994Z,98036.09
2022-10-31T23:22:18.295Z,98026.81
2022-10-31T23:24:51.086Z,98034.25
2022-10-31T23:27:21.228Z,98035.16
2022-10-31T23:29:52.021Z,98026.69
2022-10-31T23:32:22.390Z,98014.75
2022-10-31T23:34:52.811Z,98009.44
2022-10-31T23:37:26.154Z,98019.66
2022-10-31T23:39:55.545Z,98024.88
2022-10-31T23:42:24.826Z,98020.66
2022-10-31T23:44:53.919Z,98015.03
2022-10-31T23:47:23.536Z,98019.56
2022-10-31T23:49:53.891Z,98019.00
2022-10-31T23:52:23.776Z,98007.28
2022-10-31T23:54:52.476Z,98015.91
2022-10-31T23:57:21.139Z,98021.16
2022-10-31T23:59:49.756Z,98018.66
